createdAt,value
2023-03-11T00:00:47.432Z,2.20
2023-03-11T00:03:17.307Z,2.17
2023-03-11T00:05:45.572Z,2.23
2023-03-11T00:08:19.944Z,2.20
2023-03-11T00:10:48.433Z,2.10
2023-03-11T00:13:16.686Z,2.60
2023-03-11T00:15:46.128Z,2.27
2023-03-11T00:18:13.421Z,2.60
2023-03-11T00:20:43.345Z,2.20
2023-03-11T00:23:12.566Z,2.37
2023-03-11T00:25:40.415Z,2.33
2023-03-11T00:28:07.561Z,2.60
2023-03-11T00:30:35.062Z,2.67
2023-03-11T00:33:02.538Z,2.23
2023-03-11T00:35:31.796Z,2.70
2023-03-11T00:38:01.307Z,2.73
2023-03-11T00:40:30.199Z,2.87
2023-03-11T00:42:57.569Z,3.53
2023-03-11T00:45:25.248Z,3.63
2023-03-11T00:47:53.240Z,3.50
2023-03-11T00:50:23.497Z,3.70
2023-03-11T00:52:51.281Z,3.23
2023-03-11T00:55:31.242Z,3.43
2023-03-11T00:58:02.029Z,3.70
2023-03-11T01:00:35.816Z,3.33
2023-03-11T01:03:03.876Z,3.37
2023-03-11T01:05:32.891Z,3.37
2023-03-11T01:08:00.451Z,3.47
2023-03-11T01:10:29.248Z,3.60
2023-03-11T01:12:56.616Z,3.50
2023-03-11T01:15:27.811Z,3.60
2023-03-11T01:17:54.969Z,3.70
2023-03-11T01:20:22.616Z,3.63
2023-03-11T01:22:49.734Z,3.17
2023-03-11T01:25:19.224Z,3.27
2023-03-11T01:27:46.396Z,3.40
2023-03-11T01:30:18.757Z,3.37
2023-03-11T01:32:46.532Z,3.23
2023-03-11T01:35:16.326Z,3.30
2023-03-11T01:37:43.915Z,3.40
2023-03-11T01:40:21.560Z,3.50
2023-03-11T01:42:48.901Z,4.03
2023-03-11T01:46:14.960Z,3.60
2023-03-11T01:48:47.982Z,3.50
2023-03-11T01:51:17.766Z,3.30
2023-03-11T01:53:45.461Z,3.73
2023-03-11T01:56:14.533Z,3.73
2023-03-11T01:58:45.122Z,4.13
2023-03-11T02:01:13.163Z,3.70
2023-03-11T02:03:41.514Z,3.70
2023-03-11T02:06:13.239Z,3.60
2023-03-11T02:08:42.201Z,3.93
2023-03-11T02:11:16.050Z,3.93
2023-03-11T02:13:44.798Z,3.70
2023-03-11T02:16:14.142Z,3.73
2023-03-11T02:18:42.755Z,4.23
2023-03-11T02:21:30.670Z,4.27
2023-03-11T02:24:50.417Z,3.67
2023-03-11T02:27:19.447Z,4.37
2023-03-11T02:29:51.663Z,3.60
2023-03-11T02:32:20.511Z,3.87
2023-03-11T02:34:47.735Z,3.80
2023-03-11T02:37:17.477Z,3.80
2023-03-11T02:39:53.313Z,3.70
2023-03-11T02:42:27.911Z,3.47
2023-03-11T02:45:05.999Z,3.67
2023-03-11T02:47:33.685Z,3.47
2023-03-11T02:50:00.881Z,3.60
2023-03-11T02:52:33.924Z,3.93
2023-03-11T02:55:01.193Z,3.80
2023-03-11T02:57:28.551Z,3.90
2023-03-11T02:59:55.769Z,4.17
2023-03-11T03:02:22.994Z,4.27
2023-03-11T03:04:51.664Z,3.97
2023-03-11T03:07:18.794Z,4.73
2023-03-11T03:09:46.125Z,4.20
2023-03-11T03:12:13.461Z,4.00
2023-03-11T03:14:40.674Z,4.50
2023-03-11T03:17:07.879Z,3.87
2023-03-11T03:19:35.232Z,4.70
2023-03-11T03:22:02.446Z,4.20
2023-03-11T03:24:29.642Z,4.40
2023-03-11T03:26:56.703Z,4.27
2023-03-11T03:29:23.910Z,4.30
2023-03-11T03:31:52.326Z,5.30
2023-03-11T03:34:19.670Z,5.13
2023-03-11T03:36:46.829Z,4.20
2023-03-11T03:39:14.496Z,5.17
2023-03-11T03:41:41.681Z,5.03
2023-03-11T03:44:08.898Z,4.57
2023-03-11T03:46:38.546Z,4.07
2023-03-11T03:49:08.160Z,4.60
2023-03-11T03:51:35.666Z,4.93
2023-03-11T03:54:11.380Z,4.57
2023-03-11T03:56:39.118Z,4.37
2023-03-11T03:59:06.586Z,4.10
2023-03-11T04:01:39.309Z,4.20
2023-03-11T04:04:06.511Z,4.73
2023-03-11T04:06:33.744Z,4.67
2023-03-11T04:09:04.647Z,4.20
2023-03-11T04:11:34.813Z,4.40
2023-03-11T04:14:03.538Z,3.60
2023-03-11T04:16:32.787Z,3.83
2023-03-11T04:19:07.620Z,4.10
2023-03-11T04:21:35.900Z,4.50
2023-03-11T04:24:04.063Z,4.33
2023-03-11T04:26:35.060Z,4.30
2023-03-11T04:29:03.142Z,4.20
2023-03-11T04:31:34.774Z,4.10
2023-03-11T04:34:06.625Z,4.40
2023-03-11T04:36:35.384Z,4.57
2023-03-11T04:39:02.962Z,4.60
2023-03-11T04:41:33.652Z,4.20
2023-03-11T04:44:01.247Z,4.63
2023-03-11T04:46:28.549Z,4.80
2023-03-11T04:48:56.117Z,4.03
2023-03-11T04:51:23.251Z,4.57
2023-03-11T04:53:50.292Z,4.07
2023-03-11T04:56:17.673Z,4.80
2023-03-11T04:58:44.853Z,4.23
2023-03-11T05:01:12.189Z,4.80
2023-03-11T05:03:39.300Z,4.53
2023-03-11T05:06:07.185Z,4.43
2023-03-11T05:08:34.259Z,4.10
2023-03-11T05:11:01.418Z,5.23
2023-03-11T05:13:29.507Z,3.97
2023-03-11T05:15:57.587Z,4.40
2023-03-11T05:18:25.430Z,4.67
2023-03-11T05:20:53.602Z,3.93
2023-03-11T05:23:24.486Z,4.10
2023-03-11T05:25:52.044Z,3.33
2023-03-11T05:28:19.220Z,3.63
2023-03-11T05:30:50.886Z,4.37
2023-03-11T05:33:18.689Z,4.17
2023-03-11T05:35:47.003Z,3.80
2023-03-11T05:38:14.778Z,5.03
2023-03-11T05:40:42.000Z,4.30
2023-03-11T05:43:09.145Z,3.40
2023-03-11T05:45:39.960Z,4.43
2023-03-11T05:48:07.369Z,4.27
2023-03-11T05:50:36.544Z,4.37
2023-03-11T05:53:03.873Z,4.23
2023-03-11T05:55:31.826Z,4.80
2023-03-11T05:58:00.266Z,5.22
2023-03-11T06:00:29.611Z,4.10
2023-03-11T06:02:59.310Z,4.23
2023-03-11T06:05:26.592Z,4.40
2023-03-11T06:07:55.723Z,4.10
2023-03-11T06:10:23.609Z,3.90
2023-03-11T06:12:50.858Z,4.10
2023-03-11T06:15:23.514Z,4.63
2023-03-11T06:17:53.249Z,4.50
2023-03-11T06:20:20.607Z,4.60
2023-03-11T06:22:51.230Z,5.53
2023-03-11T06:25:21.670Z,5.93
2023-03-11T06:27:53.520Z,5.27
2023-03-11T06:30:22.406Z,4.53
2023-03-11T06:33:14.501Z,5.60
2023-03-11T06:35:42.342Z,5.27
2023-03-11T06:38:09.600Z,5.40
2023-03-11T06:40:38.197Z,5.47
2023-03-11T06:43:05.438Z,5.40
2023-03-11T06:45:35.971Z,5.70
2023-03-11T06:48:03.140Z,4.53
2023-03-11T06:50:31.694Z,6.07
2023-03-11T06:53:03.013Z,5.27
2023-03-11T06:55:31.913Z,5.20
2023-03-11T06:57:59.903Z,6.30
2023-03-11T07:00:27.637Z,5.80
2023-03-11T07:02:58.470Z,6.03
2023-03-11T07:05:26.444Z,6.57
2023-03-11T07:07:58.872Z,6.40
2023-03-11T07:10:26.555Z,7.03
2023-03-11T07:12:53.613Z,7.93
2023-03-11T07:15:20.886Z,6.60
2023-03-11T07:17:47.997Z,7.27
2023-03-11T07:20:15.696Z,7.17
2023-03-11T07:22:42.815Z,7.50
2023-03-11T07:25:10.375Z,7.37
2023-03-11T07:27:37.502Z,6.17
2023-03-11T07:30:05.036Z,7.13
2023-03-11T07:32:32.161Z,6.10
2023-03-11T07:34:59.345Z,3.77
2023-03-11T07:37:26.422Z,2.97
2023-03-11T07:39:53.610Z,2.37
2023-03-11T07:42:20.905Z,2.93
2023-03-11T07:44:51.656Z,4.10
2023-03-11T07:47:18.822Z,3.47
2023-03-11T07:49:45.924Z,4.00
2023-03-11T07:52:13.209Z,6.03
2023-03-11T07:54:40.359Z,4.40
2023-03-11T07:57:09.332Z,4.30
2023-03-11T07:59:36.535Z,4.20
2023-03-11T08:02:04.813Z,4.27
2023-03-11T08:04:31.924Z,3.93
2023-03-11T08:06:59.029Z,4.13
2023-03-11T08:09:26.306Z,3.83
2023-03-11T08:11:53.409Z,4.20
2023-03-11T08:14:20.582Z,3.50
2023-03-11T08:16:48.311Z,3.53
2023-03-11T08:19:15.494Z,3.17
2023-03-11T08:21:42.594Z,3.43
2023-03-11T08:24:14.328Z,2.80
2023-03-11T08:26:42.267Z,3.40
2023-03-11T08:29:09.363Z,3.73
2023-03-11T08:31:36.637Z,4.00
2023-03-11T08:34:06.878Z,3.63
2023-03-11T08:36:34.819Z,3.40
2023-03-11T08:39:02.000Z,3.30
2023-03-11T08:41:29.290Z,5.00
2023-03-11T08:43:56.986Z,4.17
2023-03-11T08:46:36.299Z,3.83
2023-03-11T08:49:04.597Z,4.23
2023-03-11T08:51:33.622Z,3.43
2023-03-11T08:54:01.067Z,3.47
2023-03-11T08:56:28.647Z,3.80
2023-03-11T08:58:55.763Z,4.33
2023-03-11T09:01:23.835Z,4.90
2023-03-11T09:03:51.529Z,4.70
2023-03-11T09:06:18.759Z,3.57
2023-03-11T09:08:46.448Z,4.93
2023-03-11T09:11:14.045Z,3.67
2023-03-11T09:13:42.372Z,4.33
2023-03-11T09:16:13.726Z,4.33
2023-03-11T09:18:40.987Z,4.13
2023-03-11T09:21:08.368Z,6.03
2023-03-11T09:23:35.447Z,4.27
2023-03-11T09:26:02.714Z,3.03
2023-03-11T09:28:29.984Z,4.23
2023-03-11T09:30:57.721Z,3.83
2023-03-11T09:33:25.236Z,3.00
2023-03-11T09:35:52.327Z,3.95
2023-03-11T09:38:19.500Z,4.00
2023-03-11T09:41:16.293Z,3.90
2023-03-11T09:44:16.669Z,3.80
2023-03-11T09:47:14.596Z,3.60
2023-03-11T09:50:15.332Z,3.10
2023-03-11T09:56:03.985Z,4.33
2023-03-11T10:01:46.238Z,3.57
2023-03-11T10:04:27.990Z,3.60
2023-03-11T10:06:56.252Z,3.03
2023-03-11T10:09:45.196Z,3.23
2023-03-11T10:12:47.746Z,3.03
2023-03-11T10:15:55.517Z,3.00
2023-03-11T10:18:59.354Z,3.07
2023-03-11T10:22:14.829Z,2.87
2023-03-11T10:25:04.149Z,2.90
2023-03-11T10:27:46.722Z,2.87
2023-03-11T10:30:39.930Z,2.83
2023-03-11T10:33:42.655Z,2.67
2023-03-11T10:36:19.191Z,2.93
2023-03-11T10:38:49.115Z,2.63
2023-03-11T10:41:44.963Z,2.90
2023-03-11T10:44:20.854Z,2.73
2023-03-11T10:46:47.990Z,2.63
2023-03-11T10:49:16.861Z,2.73
2023-03-11T10:51:47.146Z,2.73
2023-03-11T10:54:35.867Z,2.80
2023-03-11T10:57:25.718Z,3.00
2023-03-11T10:59:57.703Z,2.90
2023-03-11T11:02:33.656Z,3.20
2023-03-11T11:05:39.383Z,2.83
2023-03-11T11:08:17.308Z,2.80
2023-03-11T11:11:01.704Z,2.33
2023-03-11T11:13:36.784Z,2.97
2023-03-11T11:16:21.171Z,2.80
2023-03-11T11:19:13.502Z,2.67
2023-03-11T11:21:52.483Z,3.20
2023-03-11T11:24:27.865Z,2.50
2023-03-11T11:27:28.788Z,2.90
2023-03-11T11:30:29.450Z,2.70
2023-03-11T11:32:57.069Z,2.97
2023-03-11T11:35:25.493Z,2.57
2023-03-11T11:38:00.032Z,2.20
2023-03-11T11:40:30.839Z,2.60
2023-03-11T11:43:12.438Z,3.30
2023-03-11T11:45:43.008Z,2.77
2023-03-11T11:48:22.758Z,2.50
2023-03-11T11:51:00.289Z,2.53
2023-03-11T11:54:01.532Z,2.80
2023-03-11T11:56:28.938Z,3.03
2023-03-11T11:58:56.051Z,2.50
2023-03-11T12:01:37.146Z,3.57
2023-03-11T12:04:33.032Z,3.50
2023-03-11T12:07:44.472Z,3.17
2023-03-11T12:10:33.642Z,2.93
2023-03-11T12:13:42.218Z,2.90
2023-03-11T12:16:43.316Z,3.33
2023-03-11T12:19:23.505Z,3.37
2023-03-11T12:22:41.981Z,2.87
2023-03-11T12:25:45.956Z,2.47
2023-03-11T12:28:39.856Z,3.23
2023-03-11T12:31:12.045Z,2.97
2023-03-11T12:33:45.923Z,2.60
2023-03-11T12:36:31.334Z,2.60
2023-03-11T12:39:00.037Z,2.30
2023-03-11T12:41:39.000Z,3.13
2023-03-11T12:44:23.286Z,3.27
2023-03-11T12:47:02.185Z,3.00
2023-03-11T12:49:51.941Z,3.40
2023-03-11T12:52:52.611Z,3.40
2023-03-11T12:55:33.036Z,2.70
2023-03-11T12:58:32.135Z,3.03
2023-03-11T13:01:37.554Z,2.97
2023-03-11T13:04:54.321Z,2.80
2023-03-11T13:08:02.862Z,2.17
2023-03-11T13:10:56.221Z,2.40
2023-03-11T13:13:42.577Z,2.60
2023-03-11T13:16:36.324Z,2.40
2023-03-11T13:19:33.750Z,2.40
2023-03-11T13:22:02.655Z,2.33
2023-03-11T13:24:50.582Z,2.50
2023-03-11T13:27:37.448Z,2.50
2023-03-11T13:30:18.462Z,2.37
2023-03-11T13:33:21.564Z,2.37
2023-03-11T13:36:15.375Z,2.40
2023-03-11T13:39:19.988Z,2.30
2023-03-11T13:41:47.866Z,2.70
2023-03-11T13:44:41.312Z,2.50
2023-03-11T13:47:14.876Z,2.57
2023-03-11T13:50:21.285Z,2.17
2023-03-11T13:52:50.869Z,2.17
2023-03-11T13:55:34.302Z,2.20
2023-03-11T13:58:01.725Z,2.37
2023-03-11T14:00:31.117Z,2.13
2023-03-11T14:03:02.574Z,1.93
2023-03-11T14:05:35.437Z,2.20
2023-03-11T14:08:23.816Z,2.20
2023-03-11T14:11:15.577Z,2.07
2023-03-11T14:13:45.052Z,1.70
2023-03-11T14:16:21.177Z,2.03
2023-03-11T14:19:02.892Z,1.90
2023-03-11T14:21:31.825Z,2.10
2023-03-11T14:24:00.233Z,1.90
2023-03-11T14:26:30.948Z,2.10
2023-03-11T14:29:01.405Z,1.83
2023-03-11T14:31:40.306Z,1.70
2023-03-11T14:34:28.883Z,1.80
2023-03-11T14:36:58.998Z,1.80
2023-03-11T14:39:47.658Z,1.70
2023-03-11T14:42:26.879Z,1.60
2023-03-11T14:45:28.802Z,1.53
2023-03-11T14:48:25.864Z,2.33
2023-03-11T14:50:56.625Z,2.10
2023-03-11T14:53:32.031Z,2.10
2023-03-11T14:56:28.772Z,1.90
2023-03-11T14:59:27.504Z,2.20
2023-03-11T15:01:58.422Z,1.93
2023-03-11T15:04:33.128Z,2.13
2023-03-11T15:07:01.547Z,2.00
2023-03-11T15:09:30.284Z,2.03
2023-03-11T15:11:59.917Z,2.10
2023-03-11T15:14:33.084Z,1.83
2023-03-11T15:17:41.115Z,1.80
2023-03-11T15:20:42.002Z,2.17
2023-03-11T15:23:21.797Z,2.53
2023-03-11T15:25:50.135Z,2.10
2023-03-11T15:28:30.854Z,2.13
2023-03-11T15:31:18.182Z,2.37
2023-03-11T15:33:45.691Z,2.50
2023-03-11T15:36:39.534Z,2.33
2023-03-11T15:39:18.710Z,2.17
2023-03-11T15:41:57.364Z,2.43
2023-03-11T15:45:19.943Z,2.70
2023-03-11T15:47:48.989Z,2.40
2023-03-11T15:50:26.330Z,2.47
2023-03-11T15:52:57.594Z,2.97
2023-03-11T15:55:27.203Z,3.00
2023-03-11T15:58:03.457Z,3.13
2023-03-11T16:00:30.878Z,2.97
2023-03-11T16:02:58.014Z,2.93
2023-03-11T16:05:25.717Z,3.37
2023-03-11T16:07:52.906Z,2.70
2023-03-11T16:10:24.254Z,3.20
2023-03-11T16:12:51.813Z,2.70
2023-03-11T16:15:24.870Z,2.63
2023-03-11T16:17:53.179Z,2.93
2023-03-11T16:20:22.539Z,2.60
2023-03-11T16:22:52.807Z,2.77
2023-03-11T16:25:26.216Z,2.60
2023-03-11T16:27:54.843Z,2.50
2023-03-11T16:30:23.353Z,2.80
2023-03-11T16:32:50.756Z,2.53
2023-03-11T16:35:18.380Z,2.93
2023-03-11T16:37:45.821Z,2.83
2023-03-11T16:40:15.467Z,2.87
2023-03-11T16:42:43.879Z,2.60
2023-03-11T16:45:12.884Z,2.90
2023-03-11T16:47:40.006Z,2.90
2023-03-11T16:50:08.457Z,3.10
2023-03-11T16:52:35.784Z,2.50
2023-03-11T16:55:03.111Z,3.03
2023-03-11T16:57:30.234Z,2.90
2023-03-11T16:59:57.395Z,2.73
2023-03-11T17:02:24.727Z,2.77
2023-03-11T17:04:52.248Z,3.70
2023-03-11T17:07:19.375Z,3.13
2023-03-11T17:09:46.483Z,3.40
2023-03-11T17:12:15.815Z,3.53
2023-03-11T17:14:43.061Z,4.10
2023-03-11T17:17:10.228Z,3.87
2023-03-11T17:19:37.465Z,3.80
2023-03-11T17:22:05.002Z,3.60
2023-03-11T17:24:32.099Z,4.13
2023-03-11T17:26:59.459Z,4.20
2023-03-11T17:29:26.582Z,4.27
2023-03-11T17:31:53.745Z,4.40
2023-03-11T17:34:21.035Z,5.07
2023-03-11T17:36:48.207Z,5.10
2023-03-11T17:39:15.343Z,4.70
2023-03-11T17:41:42.573Z,4.70
2023-03-11T17:44:11.153Z,5.20
2023-03-11T17:46:40.220Z,4.13
2023-03-11T17:49:08.247Z,4.17
2023-03-11T17:51:35.796Z,5.37
2023-03-11T17:54:03.293Z,4.53
2023-03-11T17:56:30.818Z,5.10
2023-03-11T17:58:58.996Z,5.00
2023-03-11T18:01:27.493Z,4.93
2023-03-11T18:03:55.329Z,4.73
2023-03-11T18:06:22.936Z,5.17
2023-03-11T18:08:50.809Z,5.37
2023-03-11T18:11:19.676Z,5.97
2023-03-11T18:13:47.439Z,5.80
2023-03-11T18:16:16.888Z,6.37
2023-03-11T18:18:44.986Z,7.10
2023-03-11T18:21:13.877Z,6.53
2023-03-11T18:23:41.760Z,7.03
2023-03-11T18:26:10.055Z,7.40
2023-03-11T18:28:37.633Z,7.20
2023-03-11T18:31:12.421Z,7.50
2023-03-11T18:33:40.233Z,7.70
2023-03-11T18:36:18.183Z,7.93
2023-03-11T18:38:45.729Z,7.60
2023-03-11T18:41:13.278Z,7.20
2023-03-11T18:43:40.943Z,7.43
2023-03-11T18:46:10.275Z,7.40
2023-03-11T18:48:37.926Z,7.43
2023-03-11T18:51:05.798Z,7.43
2023-03-11T18:53:33.289Z,7.60
2023-03-11T18:56:01.669Z,7.83
2023-03-11T18:58:29.139Z,7.03
2023-03-11T19:00:57.077Z,8.00
2023-03-11T19:03:24.613Z,8.17
2023-03-11T19:05:52.530Z,7.30
2023-03-11T19:08:20.042Z,7.67
2023-03-11T19:10:47.548Z,7.63
2023-03-11T19:13:19.286Z,8.40
2023-03-11T19:15:47.062Z,8.33
2023-03-11T19:18:15.014Z,8.20
2023-03-11T19:20:42.524Z,8.17
2023-03-11T19:23:09.936Z,7.80
2023-03-11T19:25:37.454Z,7.03
2023-03-11T19:28:05.019Z,7.87
2023-03-11T19:30:32.601Z,7.23
2023-03-11T19:33:00.142Z,8.10
2023-03-11T19:35:27.607Z,6.93
2023-03-11T19:37:57.377Z,7.60
2023-03-11T19:40:25.036Z,7.77
2023-03-11T19:42:52.777Z,7.33
2023-03-11T19:45:20.212Z,7.90
2023-03-11T19:47:50.944Z,7.90
2023-03-11T19:50:19.237Z,8.00
2023-03-11T19:52:46.714Z,7.53
2023-03-11T19:55:14.221Z,7.40
2023-03-11T19:57:41.718Z,8.77
2023-03-11T20:00:10.613Z,7.43
2023-03-11T20:02:38.225Z,7.87
2023-03-11T20:05:06.203Z,8.67
2023-03-11T20:07:34.409Z,8.20
2023-03-11T20:10:04.106Z,8.33
2023-03-11T20:12:31.592Z,7.90
2023-03-11T20:14:59.263Z,7.53
2023-03-11T20:17:26.732Z,8.33
2023-03-11T20:19:54.267Z,7.30
2023-03-11T20:22:21.783Z,8.17
2023-03-11T20:24:49.347Z,9.03
2023-03-11T20:27:16.812Z,8.17
2023-03-11T20:29:44.350Z,8.73
2023-03-11T20:32:11.804Z,8.63
2023-03-11T20:34:39.336Z,8.23
2023-03-11T20:37:06.816Z,8.57
2023-03-11T20:39:34.384Z,9.90
2023-03-11T20:42:01.892Z,9.10
2023-03-11T20:44:29.474Z,8.90
2023-03-11T20:46:56.976Z,8.63
2023-03-11T20:49:24.622Z,7.93
2023-03-11T20:51:52.082Z,8.70
2023-03-11T20:54:19.832Z,9.20
2023-03-11T20:56:49.173Z,10.13
2023-03-11T20:59:16.936Z,8.87
2023-03-11T21:01:45.889Z,8.97
2023-03-11T21:04:15.991Z,9.43
2023-03-11T21:06:44.251Z,9.20
2023-03-11T21:09:12.977Z,9.23
2023-03-11T21:11:40.654Z,9.23
2023-03-11T21:14:08.690Z,10.70
2023-03-11T21:16:37.873Z,9.17
2023-03-11T21:19:08.430Z,10.13
2023-03-11T21:21:36.117Z,10.63
2023-03-11T21:24:03.685Z,10.27
2023-03-11T21:26:31.451Z,11.20
2023-03-11T21:28:58.989Z,11.47
2023-03-11T21:31:29.282Z,10.00
2023-03-11T21:33:58.572Z,11.13
2023-03-11T21:36:26.533Z,11.67
2023-03-11T21:38:54.384Z,11.10
2023-03-11T21:41:25.127Z,12.07
2023-03-11T21:43:53.760Z,12.53
2023-03-11T21:46:23.422Z,12.30
2023-03-11T21:48:51.586Z,13.30
2023-03-11T21:51:19.845Z,13.57
2023-03-11T21:53:47.744Z,12.93
2023-03-11T21:56:15.669Z,12.97
2023-03-11T21:58:43.527Z,13.10
2023-03-11T22:01:11.644Z,13.23
2023-03-11T22:03:39.648Z,14.70
2023-03-11T22:06:09.013Z,14.40
2023-03-11T22:08:36.791Z,15.10
2023-03-11T22:11:04.813Z,15.50
2023-03-11T22:13:32.500Z,16.33
2023-03-11T22:16:02.763Z,16.13
2023-03-11T22:18:30.321Z,15.80
2023-03-11T22:21:00.975Z,15.87
2023-03-11T22:23:28.673Z,15.73
2023-03-11T22:25:56.218Z,15.27
2023-03-11T22:28:23.745Z,14.80
2023-03-11T22:30:51.361Z,15.70
2023-03-11T22:33:18.897Z,16.03
2023-03-11T22:35:50.116Z,17.13
2023-03-11T22:38:17.552Z,16.57
2023-03-11T22:40:45.002Z,16.73
2023-03-11T22:43:12.551Z,15.70
2023-03-11T22:45:40.034Z,16.47
2023-03-11T22:48:07.727Z,17.40
2023-03-11T22:50:35.217Z,14.43
2023-03-11T22:53:02.727Z,16.30
2023-03-11T22:55:30.184Z,16.87
2023-03-11T22:57:57.610Z,14.73
2023-03-11T23:00:25.056Z,16.43
2023-03-11T23:02:56.513Z,16.10
2023-03-11T23:05:24.474Z,15.70
2023-03-11T23:07:51.943Z,15.97
2023-03-11T23:10:21.322Z,16.47
2023-03-11T23:12:49.264Z,14.63
2023-03-11T23:15:18.407Z,15.60
2023-03-11T23:17:46.071Z,15.33
2023-03-11T23:20:14.865Z,15.93
2023-03-11T23:22:43.180Z,15.70
2023-03-11T23:25:13.512Z,13.93
2023-03-11T23:27:42.612Z,14.47
2023-03-11T23:30:14.377Z,14.90
2023-03-11T23:32:41.914Z,15.40
2023-03-11T23:35:09.565Z,14.10
2023-03-11T23:37:37.020Z,14.80
2023-03-11T23:40:05.153Z,12.27
2023-03-11T23:42:36.283Z,12.33
2023-03-11T23:45:04.244Z,12.93
2023-03-11T23:47:31.857Z,12.47
2023-03-11T23:49:59.410Z,13.97
2023-03-11T23:52:26.953Z,13.70
2023-03-11T23:54:54.464Z,14.47
2023-03-11T23:57:21.995Z,14.30
2023-03-11T23:59:49.476Z,14.70
